createdAt,value
2022-08-24T00:01:03.935Z,49.84
2022-08-24T00:03:34.483Z,49.81
2022-08-24T00:05:56.727Z,49.77
2022-08-24T00:08:23.207Z,49.84
2022-08-24T00:10:49.582Z,49.77
2022-08-24T00:13:15.970Z,49.90
2022-08-24T00:15:42.347Z,50.16
2022-08-24T00:18:08.743Z,49.87
2022-08-24T00:20:35.119Z,49.84
2022-08-24T00:23:01.504Z,49.84
2022-08-24T00:25:27.886Z,49.71
2022-08-24T00:27:54.273Z,49.74
2022-08-24T00:30:20.655Z,49.79
2022-08-24T00:32:47.039Z,49.75
2022-08-24T00:35:13.418Z,49.74
2022-08-24T00:37:39.804Z,49.74
2022-08-24T00:40:06.268Z,49.78
2022-08-24T00:42:32.598Z,49.71
2022-08-24T00:44:58.986Z,49.66
2022-08-24T00:47:25.375Z,49.66
2022-08-24T00:49:51.855Z,49.66
2022-08-24T00:52:18.244Z,49.59
2022-08-24T00:54:46.422Z,49.74
2022-08-24T00:57:11.027Z,49.80
2022-08-24T00:59:37.411Z,49.84
2022-08-24T01:02:08.447Z,49.89
2022-08-24T01:04:30.237Z,49.98
2022-08-24T01:06:56.625Z,49.87
2022-08-24T01:09:23.025Z,49.89
2022-08-24T01:11:49.428Z,49.92
2022-08-24T01:14:15.848Z,49.59
2022-08-24T01:16:42.286Z,49.68
2022-08-24T01:19:08.646Z,49.71
2022-08-24T01:21:35.036Z,49.70
2022-08-24T01:24:01.417Z,49.60
2022-08-24T01:26:27.852Z,49.55
2022-08-24T01:28:54.224Z,49.56
2022-08-24T01:31:20.625Z,49.59
2022-08-24T01:33:46.999Z,49.57
2022-08-24T01:36:13.383Z,49.54
2022-08-24T01:38:39.771Z,49.59
2022-08-24T01:41:06.162Z,49.64
2022-08-24T01:43:32.544Z,49.49
2022-08-24T01:45:58.925Z,49.48
2022-08-24T01:48:25.299Z,49.53
2022-08-24T01:50:51.689Z,49.49
2022-08-24T01:53:18.338Z,49.61
2022-08-24T01:55:44.471Z,49.55
2022-08-24T01:58:10.862Z,49.48
2022-08-24T02:00:37.239Z,49.44
2022-08-24T02:03:03.893Z,49.46
2022-08-24T02:05:30.014Z,49.42
2022-08-24T02:07:56.520Z,49.27
2022-08-24T02:10:22.893Z,48.74
2022-08-24T02:12:49.293Z,48.37
2022-08-24T02:15:15.699Z,47.94
2022-08-24T02:17:42.081Z,47.81
2022-08-24T02:20:08.461Z,47.75
2022-08-24T02:22:34.841Z,47.68
2022-08-24T02:25:01.226Z,47.67
2022-08-24T02:27:27.604Z,47.70
2022-08-24T02:29:53.990Z,47.74
2022-08-24T02:32:20.370Z,47.80
2022-08-24T02:34:46.758Z,47.83
2022-08-24T02:37:13.158Z,47.86
2022-08-24T02:39:39.539Z,47.97
2022-08-24T02:42:05.915Z,48.03
2022-08-24T02:44:32.318Z,48.13
2022-08-24T02:46:58.692Z,48.29
2022-08-24T02:49:25.078Z,48.49
2022-08-24T02:51:51.463Z,48.68
2022-08-24T02:54:18.434Z,48.90
2022-08-24T02:56:44.249Z,49.03
2022-08-24T02:59:10.637Z,49.19
2022-08-24T03:01:37.092Z,49.29
2022-08-24T03:04:03.450Z,49.42
2022-08-24T03:06:29.850Z,49.53
2022-08-24T03:08:56.878Z,49.67
2022-08-24T03:11:26.893Z,49.76
2022-08-24T03:13:48.991Z,49.81
2022-08-24T03:16:15.410Z,49.85
2022-08-24T03:18:41.760Z,49.97
2022-08-24T03:21:08.141Z,50.06
2022-08-24T03:23:34.652Z,50.12
2022-08-24T03:26:00.913Z,50.23
2022-08-24T03:28:27.345Z,50.32
2022-08-24T03:30:53.743Z,50.35
2022-08-24T03:33:20.062Z,50.37
2022-08-24T03:35:46.432Z,50.42
2022-08-24T03:38:12.819Z,50.48
2022-08-24T03:40:39.224Z,50.52
2022-08-24T03:43:05.671Z,50.55
2022-08-24T03:45:31.981Z,50.61
2022-08-24T03:47:58.352Z,50.64
2022-08-24T03:50:24.725Z,50.63
2022-08-24T03:52:51.105Z,50.59
2022-08-24T03:55:17.479Z,50.52
2022-08-24T03:57:43.872Z,50.42
2022-08-24T04:00:10.255Z,50.39
2022-08-24T04:02:36.760Z,50.39
2022-08-24T04:05:03.111Z,50.39
2022-08-24T04:07:29.498Z,50.38
2022-08-24T04:09:55.887Z,50.74
2022-08-24T04:12:23.181Z,50.60
2022-08-24T04:14:48.777Z,54.75
2022-08-24T04:17:15.165Z,51.81
2022-08-24T04:19:41.553Z,51.22
2022-08-24T04:22:07.981Z,51.27
2022-08-24T04:24:34.361Z,51.03
2022-08-24T04:27:00.749Z,51.02
2022-08-24T04:29:27.124Z,50.97
2022-08-24T04:31:53.614Z,50.96
2022-08-24T04:34:19.888Z,50.83
2022-08-24T04:36:46.278Z,50.77
2022-08-24T04:39:12.656Z,50.71
2022-08-24T04:41:39.050Z,50.59
2022-08-24T04:44:05.419Z,50.52
2022-08-24T04:46:31.797Z,50.50
2022-08-24T04:48:58.183Z,50.48
2022-08-24T04:51:24.560Z,50.45
2022-08-24T04:53:50.947Z,50.48
2022-08-24T04:56:17.326Z,50.47
2022-08-24T04:58:43.702Z,50.47
2022-08-24T05:01:10.263Z,50.45
2022-08-24T05:03:36.499Z,50.52
2022-08-24T05:06:03.065Z,50.53
2022-08-24T05:08:29.466Z,50.42
2022-08-24T05:10:55.841Z,50.44
2022-08-24T05:13:22.231Z,50.35
2022-08-24T05:15:48.641Z,50.39
2022-08-24T05:18:15.021Z,50.32
2022-08-24T05:20:41.396Z,50.36
2022-08-24T05:23:08.066Z,50.46
2022-08-24T05:25:34.182Z,50.44
2022-08-24T05:28:00.582Z,50.37
2022-08-24T05:30:26.960Z,50.48
2022-08-24T05:32:53.369Z,50.53
2022-08-24T05:35:19.728Z,50.46
2022-08-24T05:37:46.154Z,50.58
2022-08-24T05:40:12.553Z,50.60
2022-08-24T05:42:38.910Z,50.55
2022-08-24T05:45:05.284Z,50.64
2022-08-24T05:47:31.672Z,50.63
2022-08-24T05:49:58.048Z,50.55
2022-08-24T05:52:24.438Z,50.73
2022-08-24T05:54:50.825Z,50.60
2022-08-24T05:57:17.237Z,50.70
2022-08-24T05:59:43.613Z,50.67
2022-08-24T06:02:10.073Z,50.79
2022-08-24T06:04:36.386Z,50.80
2022-08-24T06:07:02.773Z,50.74
2022-08-24T06:09:29.153Z,50.86
2022-08-24T06:11:55.544Z,50.80
2022-08-24T06:14:26.772Z,50.74
2022-08-24T06:16:48.537Z,50.91
2022-08-24T06:19:14.834Z,50.89
2022-08-24T06:21:41.218Z,50.67
2022-08-24T06:24:07.617Z,50.90
2022-08-24T06:26:34.029Z,50.93
2022-08-24T06:29:00.434Z,50.93
2022-08-24T06:31:26.847Z,51.00
2022-08-24T06:33:54.412Z,50.97
2022-08-24T06:36:20.569Z,50.95
2022-08-24T06:38:45.951Z,50.96
2022-08-24T06:41:12.343Z,50.95
2022-08-24T06:43:38.719Z,51.05
2022-08-24T06:46:05.142Z,51.03
2022-08-24T06:48:31.493Z,50.96
2022-08-24T06:50:57.876Z,51.03
2022-08-24T06:53:24.258Z,50.97
2022-08-24T06:55:50.672Z,51.03
2022-08-24T06:58:17.053Z,51.37
2022-08-24T07:00:43.589Z,51.21
2022-08-24T07:03:11.633Z,51.20
2022-08-24T07:05:36.391Z,51.17
2022-08-24T07:08:02.800Z,51.06
2022-08-24T07:10:29.194Z,51.09
2022-08-24T07:12:55.584Z,51.31
2022-08-24T07:15:22.020Z,51.17
2022-08-24T07:17:48.420Z,51.36
2022-08-24T07:20:14.812Z,51.35
2022-08-24T07:22:41.204Z,51.69
2022-08-24T07:25:07.745Z,51.54
2022-08-24T07:27:34.123Z,51.19
2022-08-24T07:30:25.267Z,51.06
2022-08-24T07:32:26.939Z,51.03
2022-08-24T07:34:53.333Z,51.17
2022-08-24T07:37:19.755Z,51.13
2022-08-24T07:39:46.234Z,51.26
2022-08-24T07:42:15.005Z,51.27
2022-08-24T07:44:38.978Z,51.25
2022-08-24T07:47:21.096Z,51.19
2022-08-24T07:49:37.120Z,51.29
2022-08-24T07:51:58.181Z,51.25
2022-08-24T07:54:24.583Z,51.09
2022-08-24T07:56:50.976Z,50.90
2022-08-24T07:59:17.388Z,50.67
2022-08-24T08:01:43.821Z,50.61
2022-08-24T08:04:10.168Z,50.48
2022-08-24T08:06:36.550Z,50.51
2022-08-24T08:09:02.966Z,50.91
2022-08-24T08:11:29.345Z,51.09
2022-08-24T08:13:55.779Z,50.93
2022-08-24T08:16:22.200Z,51.22
2022-08-24T08:18:56.312Z,51.42
2022-08-24T08:21:15.004Z,51.54
2022-08-24T08:23:41.404Z,51.48
2022-08-24T08:26:07.795Z,51.39
2022-08-24T08:28:36.204Z,51.50
2022-08-24T08:31:00.614Z,51.28
2022-08-24T08:35:53.340Z,50.77
2022-08-24T08:38:19.738Z,51.00
2022-08-24T08:40:46.170Z,51.38
2022-08-24T08:43:12.559Z,51.54
2022-08-24T08:45:38.956Z,51.87
2022-08-24T08:48:05.344Z,51.75
2022-08-24T08:50:31.735Z,51.82
2022-08-24T08:52:58.195Z,51.96
2022-08-24T08:55:24.624Z,51.43
2022-08-24T08:57:51.010Z,51.29
2022-08-24T09:00:17.402Z,51.22
2022-08-24T09:02:43.796Z,51.11
2022-08-24T09:05:10.177Z,51.02
2022-08-24T09:07:36.563Z,51.24
2022-08-24T09:10:02.949Z,51.40
2022-08-24T09:12:29.335Z,51.54
2022-08-24T09:14:55.729Z,51.64
2022-08-24T09:17:22.149Z,51.33
2022-08-24T09:19:48.651Z,51.09
2022-08-24T09:22:15.040Z,50.75
2022-08-24T09:24:41.428Z,50.50
2022-08-24T09:27:07.820Z,50.48
2022-08-24T09:29:34.203Z,50.44
2022-08-24T09:32:00.586Z,50.55
2022-08-24T09:34:27.072Z,50.60
2022-08-24T09:36:53.490Z,50.67
2022-08-24T09:39:19.910Z,50.54
2022-08-24T09:41:46.357Z,50.53
2022-08-24T09:44:12.732Z,50.32
2022-08-24T09:46:39.119Z,50.06
2022-08-24T09:49:05.560Z,50.06
2022-08-24T09:51:31.962Z,50.26
2022-08-24T09:53:58.430Z,50.40
2022-08-24T09:56:24.808Z,50.70
2022-08-24T09:58:51.232Z,51.07
2022-08-24T10:01:17.670Z,50.98
2022-08-24T10:03:44.014Z,50.90
2022-08-24T10:06:10.466Z,50.58
2022-08-24T10:08:36.778Z,50.30
2022-08-24T10:11:03.243Z,50.27
2022-08-24T10:13:29.635Z,50.39
2022-08-24T10:15:56.026Z,50.55
2022-08-24T10:18:22.555Z,50.45
2022-08-24T10:20:48.938Z,50.49
2022-08-24T10:23:15.337Z,50.67
2022-08-24T10:25:41.735Z,50.42
2022-08-24T10:28:08.121Z,50.28
2022-08-24T10:30:34.514Z,50.29
2022-08-24T10:33:00.911Z,50.14
2022-08-24T10:35:27.295Z,49.96
2022-08-24T10:37:53.803Z,50.22
2022-08-24T10:40:20.273Z,49.67
2022-08-24T10:42:46.588Z,49.59
2022-08-24T10:45:13.006Z,49.59
2022-08-24T10:47:39.542Z,49.23
2022-08-24T10:50:06.070Z,49.69
2022-08-24T10:52:32.476Z,49.90
2022-08-24T10:54:58.859Z,50.01
2022-08-24T10:57:25.386Z,49.99
2022-08-24T10:59:51.810Z,50.48
2022-08-24T11:02:18.215Z,50.46
2022-08-24T11:04:44.593Z,50.55
2022-08-24T11:07:11.001Z,50.32
2022-08-24T11:09:37.472Z,50.41
2022-08-24T11:12:03.892Z,50.64
2022-08-24T11:14:30.284Z,50.76
2022-08-24T11:16:58.084Z,51.03
2022-08-24T11:19:23.047Z,51.20
2022-08-24T11:21:49.453Z,51.23
2022-08-24T11:24:15.858Z,51.03
2022-08-24T11:26:42.245Z,50.66
2022-08-24T11:29:08.661Z,50.29
2022-08-24T11:31:35.945Z,50.42
2022-08-24T11:34:01.426Z,50.71
2022-08-24T11:36:27.818Z,50.87
2022-08-24T11:38:54.230Z,50.90
2022-08-24T11:41:20.659Z,51.06
2022-08-24T11:43:47.057Z,51.18
2022-08-24T11:46:13.462Z,51.16
2022-08-24T11:48:39.830Z,50.98
2022-08-24T11:51:06.264Z,50.77
2022-08-24T11:53:32.655Z,50.76
2022-08-24T11:56:00.315Z,50.90
2022-08-24T11:58:25.488Z,51.05
2022-08-24T12:00:51.884Z,51.02
2022-08-24T12:03:18.443Z,51.46
2022-08-24T12:05:44.718Z,51.58
2022-08-24T12:08:11.125Z,51.84
2022-08-24T12:10:37.535Z,51.81
2022-08-24T12:13:03.959Z,51.42
2022-08-24T12:15:30.421Z,51.38
2022-08-24T12:17:56.862Z,51.41
2022-08-24T12:20:23.259Z,51.42
2022-08-24T12:22:49.803Z,51.45
2022-08-24T12:25:16.126Z,51.96
2022-08-24T12:27:42.541Z,52.20
2022-08-24T12:30:08.961Z,52.20
2022-08-24T12:32:35.454Z,52.02
2022-08-24T12:35:01.862Z,51.72
2022-08-24T12:37:28.255Z,51.55
2022-08-24T12:39:54.694Z,51.44
2022-08-24T12:42:21.059Z,51.52
2022-08-24T12:44:47.440Z,51.45
2022-08-24T12:47:13.836Z,51.79
2022-08-24T12:49:40.213Z,52.36
2022-08-24T12:52:06.623Z,52.71
2022-08-24T12:54:33.267Z,52.72
2022-08-24T12:57:02.589Z,52.38
2022-08-24T12:59:25.814Z,52.32
2022-08-24T13:01:52.245Z,51.74
2022-08-24T13:04:18.599Z,51.65
2022-08-24T13:06:45.006Z,51.27
2022-08-24T13:09:11.444Z,51.31
2022-08-24T13:11:37.816Z,51.17
2022-08-24T13:14:04.206Z,51.53
2022-08-24T13:16:30.650Z,51.92
2022-08-24T13:18:57.021Z,52.20
2022-08-24T13:21:23.402Z,52.61
2022-08-24T13:23:49.816Z,52.72
2022-08-24T13:26:16.579Z,52.80
2022-08-24T13:28:42.960Z,52.45
2022-08-24T13:31:09.402Z,52.06
2022-08-24T13:33:35.776Z,52.16
2022-08-24T13:36:02.173Z,51.64
2022-08-24T13:38:28.563Z,51.38
2022-08-24T13:40:54.948Z,51.01
2022-08-24T13:43:21.332Z,51.22
2022-08-24T13:45:47.735Z,51.49
2022-08-24T13:48:14.173Z,51.74
2022-08-24T13:50:40.580Z,51.75
2022-08-24T13:53:06.961Z,52.06
2022-08-24T13:55:33.351Z,52.28
2022-08-24T13:57:59.779Z,52.53
2022-08-24T14:00:26.135Z,52.95
2022-08-24T14:02:52.521Z,52.86
2022-08-24T14:05:18.956Z,52.70
2022-08-24T14:07:45.295Z,52.70
2022-08-24T14:10:11.685Z,52.41
2022-08-24T14:12:38.095Z,52.48
2022-08-24T14:15:06.110Z,52.55
2022-08-24T14:17:35.669Z,52.70
2022-08-24T14:19:57.249Z,53.03
2022-08-24T14:22:23.635Z,52.80
2022-08-24T14:24:50.056Z,52.94
2022-08-24T14:27:16.445Z,52.61
2022-08-24T14:29:42.863Z,52.54
2022-08-24T14:32:12.130Z,52.69
2022-08-24T14:34:35.624Z,52.19
2022-08-24T14:37:02.018Z,52.36
2022-08-24T14:39:28.489Z,53.06
2022-08-24T14:41:54.791Z,53.07
2022-08-24T14:44:21.158Z,53.67
2022-08-24T14:46:47.611Z,54.05
2022-08-24T14:49:13.926Z,54.24
2022-08-24T14:51:40.311Z,54.33
2022-08-24T14:54:06.872Z,54.63
2022-08-24T14:56:33.253Z,54.57
2022-08-24T14:58:59.694Z,54.47
2022-08-24T15:01:26.147Z,54.70
2022-08-24T15:03:52.458Z,53.99
2022-08-24T15:06:26.754Z,53.84
2022-08-24T15:08:45.224Z,53.80
2022-08-24T15:11:11.611Z,53.50
2022-08-24T15:13:38.007Z,53.68
2022-08-24T15:16:04.452Z,53.89
2022-08-24T15:18:34.865Z,53.96
2022-08-24T15:20:57.309Z,53.89
2022-08-24T15:23:23.688Z,53.63
2022-08-24T15:25:50.072Z,53.38
2022-08-24T15:28:16.445Z,53.07
2022-08-24T15:30:42.872Z,52.63
2022-08-24T15:33:09.222Z,52.23
2022-08-24T15:35:35.606Z,51.93
2022-08-24T15:38:02.075Z,51.97
2022-08-24T15:40:28.483Z,51.85
2022-08-24T15:42:54.820Z,51.92
2022-08-24T15:45:21.205Z,51.85
2022-08-24T15:47:51.765Z,51.88
2022-08-24T15:50:13.974Z,52.03
2022-08-24T15:52:40.357Z,52.02
2022-08-24T15:55:06.772Z,52.09
2022-08-24T15:57:33.151Z,52.13
2022-08-24T15:59:59.542Z,52.23
2022-08-24T16:02:26.091Z,52.28
2022-08-24T16:04:52.342Z,52.30
2022-08-24T16:07:18.725Z,52.39
2022-08-24T16:09:45.106Z,52.48
2022-08-24T16:12:14.058Z,52.48
2022-08-24T16:14:37.885Z,52.58
2022-08-24T16:17:04.310Z,52.62
2022-08-24T16:19:30.660Z,52.58
2022-08-24T16:21:58.548Z,52.54
2022-08-24T16:24:23.435Z,52.49
2022-08-24T16:26:49.813Z,52.52
2022-08-24T16:29:16.204Z,52.54
2022-08-24T16:31:42.573Z,52.44
2022-08-24T16:34:08.976Z,52.49
2022-08-24T16:36:35.349Z,52.44
2022-08-24T16:39:01.742Z,52.46
2022-08-24T16:41:28.120Z,52.49
2022-08-24T16:43:54.516Z,52.38
2022-08-24T16:46:20.947Z,52.30
2022-08-24T16:48:47.272Z,52.32
2022-08-24T16:51:13.653Z,52.38
2022-08-24T16:53:40.071Z,52.32
2022-08-24T16:56:06.578Z,52.20
2022-08-24T16:58:32.962Z,52.19
2022-08-24T17:00:59.369Z,52.10
2022-08-24T17:03:25.731Z,52.13
2022-08-24T17:05:52.121Z,52.12
2022-08-24T17:08:18.506Z,52.16
2022-08-24T17:10:44.889Z,52.14
2022-08-24T17:13:14.219Z,52.03
2022-08-24T17:15:37.657Z,51.95
2022-08-24T17:18:04.219Z,52.12
2022-08-24T17:20:30.421Z,52.08
2022-08-24T17:22:56.807Z,52.03
2022-08-24T17:25:23.255Z,51.99
2022-08-24T17:27:49.696Z,51.89
2022-08-24T17:30:16.076Z,51.87
2022-08-24T17:32:42.563Z,51.74
2022-08-24T17:35:08.965Z,51.77
2022-08-24T17:37:35.347Z,51.69
2022-08-24T17:40:01.810Z,51.62
2022-08-24T17:42:49.605Z,51.63
2022-08-24T17:44:54.575Z,51.58
2022-08-24T17:47:20.962Z,51.53
2022-08-24T17:49:47.341Z,51.63
2022-08-24T17:52:13.824Z,51.58
2022-08-24T17:54:40.204Z,51.45
2022-08-24T17:57:06.608Z,51.42
2022-08-24T17:59:33.016Z,51.40
2022-08-24T18:01:59.426Z,51.37
2022-08-24T18:04:25.852Z,51.36
2022-08-24T18:06:52.217Z,51.31
2022-08-24T18:09:18.593Z,51.27
2022-08-24T18:11:44.980Z,51.25
2022-08-24T18:14:11.364Z,51.21
2022-08-24T18:16:37.792Z,51.22
2022-08-24T18:19:04.129Z,51.20
2022-08-24T18:21:30.514Z,51.14
2022-08-24T18:23:56.897Z,51.15
2022-08-24T18:26:27.715Z,51.18
2022-08-24T18:28:49.690Z,51.22
2022-08-24T18:31:16.119Z,51.26
2022-08-24T18:33:42.480Z,51.22
2022-08-24T18:36:08.906Z,51.22
2022-08-24T18:38:35.337Z,51.19
2022-08-24T18:41:01.758Z,51.25
2022-08-24T18:43:28.177Z,51.19
2022-08-24T18:45:54.631Z,51.21
2022-08-24T18:48:20.967Z,51.15
2022-08-24T18:50:47.348Z,51.29
2022-08-24T18:53:13.732Z,51.27
2022-08-24T18:55:40.113Z,51.21
2022-08-24T18:58:06.497Z,51.08
2022-08-24T19:00:32.907Z,51.07
2022-08-24T19:02:59.352Z,51.03
2022-08-24T19:05:25.695Z,51.00
2022-08-24T19:07:52.076Z,51.05
2022-08-24T19:10:18.459Z,51.03
2022-08-24T19:12:47.055Z,50.99
2022-08-24T19:15:30.952Z,50.99
2022-08-24T19:17:37.632Z,50.93
2022-08-24T19:20:04.011Z,50.91
2022-08-24T19:22:30.396Z,50.94
2022-08-24T19:24:56.790Z,50.96
2022-08-24T19:27:23.169Z,50.85
2022-08-24T19:29:56.760Z,50.87
2022-08-24T19:32:21.650Z,50.93
2022-08-24T19:34:42.502Z,50.84
2022-08-24T19:37:08.721Z,50.80
2022-08-24T19:39:35.113Z,50.74
2022-08-24T19:42:01.493Z,50.75
2022-08-24T19:44:28.118Z,50.74
2022-08-24T19:46:54.390Z,50.72
2022-08-24T19:49:20.701Z,50.71
2022-08-24T19:51:47.110Z,50.67
2022-08-24T19:54:13.500Z,50.78
2022-08-24T19:56:39.961Z,50.68
2022-08-24T19:59:06.350Z,50.69
2022-08-24T20:01:32.867Z,50.71
2022-08-24T20:03:59.187Z,50.71
2022-08-24T20:06:25.565Z,50.71
2022-08-24T20:08:51.949Z,50.69
2022-08-24T20:11:18.329Z,50.75
2022-08-24T20:13:44.723Z,50.76
2022-08-24T20:16:11.158Z,50.71
2022-08-24T20:18:37.574Z,50.79
2022-08-24T20:21:03.957Z,50.81
2022-08-24T20:23:30.351Z,50.80
2022-08-24T20:25:56.732Z,50.89
2022-08-24T20:28:29.133Z,50.87
2022-08-24T20:30:49.578Z,50.84
2022-08-24T20:33:15.967Z,50.77
2022-08-24T20:35:42.340Z,50.83
2022-08-24T20:38:11.454Z,50.80
2022-08-24T20:40:37.834Z,50.91
2022-08-24T20:43:04.451Z,50.88
2022-08-24T20:45:30.665Z,50.80
2022-08-24T20:47:57.055Z,50.77
2022-08-24T20:50:23.598Z,50.77
2022-08-24T20:52:50.097Z,50.77
2022-08-24T20:55:16.479Z,50.85
2022-08-24T20:57:42.863Z,50.84
2022-08-24T21:00:09.258Z,50.86
2022-08-24T21:02:35.638Z,50.90
2022-08-24T21:05:02.024Z,50.84
2022-08-24T21:07:28.411Z,50.84
2022-08-24T21:09:54.799Z,50.91
2022-08-24T21:12:21.187Z,50.87
2022-08-24T21:14:47.565Z,50.85
2022-08-24T21:17:13.987Z,50.87
2022-08-24T21:19:40.361Z,50.89
2022-08-24T21:22:06.888Z,50.86
2022-08-24T21:24:33.272Z,50.83
2022-08-24T21:26:59.662Z,50.85
2022-08-24T21:29:26.083Z,50.82
2022-08-24T21:31:52.508Z,50.84
2022-08-24T21:34:18.849Z,50.88
2022-08-24T21:36:45.247Z,50.93
2022-08-24T21:39:11.653Z,50.97
2022-08-24T21:41:38.149Z,50.90
2022-08-24T21:44:07.285Z,50.93
2022-08-24T21:46:33.712Z,50.87
2022-08-24T21:49:00.064Z,50.87
2022-08-24T21:51:26.451Z,50.95
2022-08-24T21:53:54.831Z,50.90
2022-08-24T21:56:19.243Z,50.92
2022-08-24T21:58:45.616Z,50.84
2022-08-24T22:01:12.007Z,50.87
2022-08-24T22:03:40.812Z,50.84
2022-08-24T22:06:08.031Z,50.82
2022-08-24T22:08:33.581Z,50.87
2022-08-24T22:10:59.967Z,50.87
2022-08-24T22:13:26.359Z,50.84
2022-08-24T22:15:52.789Z,50.81
2022-08-24T22:18:19.133Z,50.84
2022-08-24T22:20:45.519Z,50.82
2022-08-24T22:23:11.896Z,50.71
2022-08-24T22:25:38.291Z,50.72
2022-08-24T22:28:04.673Z,50.67
2022-08-24T22:30:31.085Z,50.69
2022-08-24T22:32:57.456Z,50.72
2022-08-24T22:35:23.858Z,50.74
2022-08-24T22:37:50.242Z,50.93
2022-08-24T22:40:19.009Z,50.80
2022-08-24T22:42:43.024Z,50.77
2022-08-24T22:45:09.411Z,50.73
2022-08-24T22:47:35.879Z,50.68
2022-08-24T22:50:02.182Z,50.75
2022-08-24T22:52:28.564Z,50.70
2022-08-24T22:54:54.957Z,50.86
2022-08-24T22:57:21.372Z,50.84
2022-08-24T22:59:47.758Z,50.74
2022-08-24T23:02:14.136Z,50.77
2022-08-24T23:04:40.537Z,50.83
2022-08-24T23:07:06.932Z,50.79
2022-08-24T23:09:44.789Z,50.67
2022-08-24T23:11:59.694Z,50.71
2022-08-24T23:14:26.084Z,50.74
2022-08-24T23:16:52.532Z,50.71
2022-08-24T23:19:18.922Z,50.67
2022-08-24T23:21:45.304Z,50.78
2022-08-24T23:24:11.695Z,50.81
2022-08-24T23:26:38.085Z,50.75
2022-08-24T23:29:04.474Z,50.82
2022-08-24T23:31:30.889Z,50.63
2022-08-24T23:33:57.237Z,50.69
2022-08-24T23:36:23.650Z,50.67
2022-08-24T23:38:50.003Z,50.62
2022-08-24T23:41:16.384Z,50.56
2022-08-24T23:43:42.897Z,50.63
2022-08-24T23:46:09.404Z,50.65
2022-08-24T23:48:35.735Z,50.77
2022-08-24T23:51:02.194Z,50.75
2022-08-24T23:53:28.596Z,50.67
2022-08-24T23:55:54.969Z,50.50
2022-08-24T23:58:21.354Z,50.54
